PWSweather.com
Personal Weather Stations
Station Observations
KCOWOODL7
North Of Dinosaur Center, Woodland Park, CO 80863

North Of Dinosaur CenterWoodland Park, CO 80863

Lat: 38.998056, Lon: -105.050833

Elevation: 8555

Station Type: Ambient WS-2095

High Low Average
Temperature 31.8°F-0.1°C 3.2°F-16.0°C 17.8°F-7.9°C
Dew Point 11.4°F-11.4°C -12.5°F-24.7°C -0.6°F-18.1°C
Winds 6.0 mph 9.7 kmh Calm Calm 2.0 mph ESE3.2 kmh ESE
Wind Gusts 11.4 mph18.3 kmh -- 5.0 mph8.0 kmh
Humidity 75% 25% 45%
Pressure 29.81 in1009.5 mb 29.65 in1004.1 mb -
Precipitation 0.00 in0.0 mm - -
Hour Temp Dew Point Humidity Winds Wind Gusts Pressure Precip Precip Rate Daily Precip Total
12:13 AM 9.0°F-12.8°C -11.5°F-24.2°C 38% Calm Calm -- 29.68 in1005.1 mb 0.00 in0.0 mm 0.00 in0.0 mm 0.00 in0.0 mm
12:43 AM 8.2°F-13.2°C -11.2°F-24.0°C 40% Calm Calm 1.3 mph2.1 kmh 29.68 in1005.1 mb 0.00 in0.0 mm 0.00 in0.0 mm 0.00 in0.0 mm
01:13 AM 7.0°F-13.9°C -9.9°F-23.3°C 45% Calm Calm -- 29.67 in1004.7 mb 0.00 in0.0 mm 0.00 in0.0 mm 0.00 in0.0 mm
01:43 AM 5.5°F-14.7°C -10.8°F-23.8°C 46% 0.7 mph N1.1 kmh N 1.3 mph2.1 kmh 29.67 in1004.7 mb 0.00 in0.0 mm 0.00 in0.0 mm 0.00 in0.0 mm
02:13 AM 3.2°F-16.0°C -12.5°F-24.7°C 47% Calm Calm -- 29.67 in1004.7 mb 0.00 in0.0 mm 0.00 in0.0 mm 0.00 in0.0 mm
02:43 AM 3.4°F-15.9°C -10.7°F-23.7°C 51% Calm Calm 0.7 mph1.1 kmh 29.67 in1004.7 mb 0.00 in0.0 mm 0.00 in0.0 mm 0.00 in0.0 mm
03:13 AM 6.8°F-14.0°C -9.6°F-23.1°C 46% Calm Calm 1.3 mph2.1 kmh 29.67 in1004.7 mb 0.00 in0.0 mm 0.00 in0.0 mm 0.00 in0.0 mm
03:43 AM 3.6°F-15.8°C -11.8°F-24.3°C 48% Calm Calm 0.7 mph1.1 kmh 29.67 in1004.7 mb 0.00 in0.0 mm 0.00 in0.0 mm 0.00 in0.0 mm
04:13 AM 3.7°F-15.7°C -11.2°F-24.0°C 49% Calm Calm -- 29.66 in1004.4 mb 0.00 in0.0 mm 0.00 in0.0 mm 0.00 in0.0 mm
04:43 AM 4.3°F-15.4°C -10.3°F-23.5°C 50% Calm Calm 1.3 mph2.1 kmh 29.65 in1004.1 mb 0.00 in0.0 mm 0.00 in0.0 mm 0.00 in0.0 mm
05:13 AM 4.8°F-15.1°C -9.4°F-23.0°C 51% 1.3 mph N2.1 kmh N 2.0 mph3.2 kmh 29.66 in1004.4 mb 0.00 in0.0 mm 0.00 in0.0 mm 0.00 in0.0 mm
05:43 AM 3.6°F-15.8°C -10.2°F-23.4°C 52% Calm Calm -- 29.66 in1004.4 mb 0.00 in0.0 mm 0.00 in0.0 mm 0.00 in0.0 mm
06:13 AM 3.9°F-15.6°C -10.2°F-23.4°C 51% Calm Calm -- 29.67 in1004.7 mb 0.00 in0.0 mm 0.00 in0.0 mm 0.00 in0.0 mm
06:43 AM 6.4°F-14.2°C -8.3°F-22.4°C 50% Calm Calm -- 29.67 in1004.7 mb 0.00 in0.0 mm 0.00 in0.0 mm 0.00 in0.0 mm
07:13 AM 5.4°F-14.8°C -10.1°F-23.4°C 48% 1.3 mph N2.1 kmh N 2.0 mph3.2 kmh 29.68 in1005.1 mb 0.00 in0.0 mm 0.00 in0.0 mm 0.00 in0.0 mm
07:43 AM 4.1°F-15.5°C -10.1°F-23.4°C 51% Calm Calm -- 29.68 in1005.1 mb 0.00 in0.0 mm 0.00 in0.0 mm 0.00 in0.0 mm
08:15 AM 4.1°F-15.5°C -9.5°F-23.1°C 52% Calm Calm -- 29.69 in1005.4 mb 0.00 in0.0 mm 0.00 in0.0 mm 0.00 in0.0 mm
08:30 AM 5.4°F-14.8°C -8.7°F-22.6°C 51% Calm Calm 1.3 mph2.1 kmh 29.69 in1005.4 mb 0.00 in0.0 mm 0.00 in0.0 mm 0.00 in0.0 mm
08:45 AM 8.8°F-12.9°C -6.8°F-21.6°C 48% Calm Calm 2.0 mph3.2 kmh 29.70 in1005.8 mb 0.00 in0.0 mm 0.00 in0.0 mm 0.00 in0.0 mm
09:00 AM 11.7°F-11.3°C -4.6°F-20.3°C 47% Calm Calm -- 29.70 in1005.8 mb 0.00 in0.0 mm 0.00 in0.0 mm 0.00 in0.0 mm
09:15 AM 16.0°F-8.9°C -4.5°F-20.3°C 39% Calm Calm 1.3 mph2.1 kmh 29.70 in1005.8 mb 0.00 in0.0 mm 0.00 in0.0 mm 0.00 in0.0 mm
09:30 AM 17.4°F-8.1°C -7.3°F-21.8°C 32% Calm Calm 2.0 mph3.2 kmh 29.70 in1005.8 mb 0.00 in0.0 mm 0.00 in0.0 mm 0.00 in0.0 mm
09:45 AM 16.9°F-8.4°C -8.4°F-22.4°C 31% Calm Calm 1.3 mph2.1 kmh 29.70 in1005.8 mb 0.00 in0.0 mm 0.00 in0.0 mm 0.00 in0.0 mm
10:00 AM 18.7°F-7.4°C -8.2°F-22.3°C 29% 0.7 mph NW1.1 kmh NW 3.4 mph5.5 kmh 29.70 in1005.8 mb 0.00 in0.0 mm 0.00 in0.0 mm 0.00 in0.0 mm
10:15 AM 20.3°F-6.5°C -4.8°F-20.4°C 32% 0.7 mph WNW1.1 kmh WNW 2.7 mph4.3 kmh 29.70 in1005.8 mb 0.00 in0.0 mm 0.00 in0.0 mm 0.00 in0.0 mm
10:30 AM 20.8°F-6.2°C -5.6°F-20.9°C 30% 0.7 mph NW1.1 kmh NW 2.0 mph3.2 kmh 29.70 in1005.8 mb 0.00 in0.0 mm 0.00 in0.0 mm 0.00 in0.0 mm
10:45 AM 21.4°F-5.9°C -4.5°F-20.3°C 31% Calm Calm 4.0 mph6.4 kmh 29.70 in1005.8 mb 0.00 in0.0 mm 0.00 in0.0 mm 0.00 in0.0 mm
11:00 AM 22.5°F-5.3°C -4.9°F-20.5°C 29% 0.7 mph WSW1.1 kmh WSW 2.7 mph4.3 kmh 29.70 in1005.8 mb 0.00 in0.0 mm 0.00 in0.0 mm 0.00 in0.0 mm
11:15 AM 23.0°F-5.0°C -5.2°F-20.7°C 28% Calm Calm 2.7 mph4.3 kmh 29.70 in1005.8 mb 0.00 in0.0 mm 0.00 in0.0 mm 0.00 in0.0 mm
11:30 AM 22.1°F-5.5°C -4.5°F-20.3°C 30% 0.7 mph SSE1.1 kmh SSE 2.7 mph4.3 kmh 29.70 in1005.8 mb 0.00 in0.0 mm 0.00 in0.0 mm 0.00 in0.0 mm
11:45 AM 22.5°F-5.3°C 0.2°F-17.7°C 37% 1.3 mph SE2.1 kmh SE 5.4 mph8.7 kmh 29.70 in1005.8 mb 0.00 in0.0 mm 0.00 in0.0 mm 0.00 in0.0 mm
12:00 PM 23.2°F-4.9°C -1.0°F-18.3°C 34% 0.7 mph ESE1.1 kmh ESE 4.7 mph7.6 kmh 29.70 in1005.8 mb 0.00 in0.0 mm 0.00 in0.0 mm 0.00 in0.0 mm
12:15 PM 23.2°F-4.9°C -2.2°F-19.0°C 32% 2.7 mph SE4.3 kmh SE 5.4 mph8.7 kmh 29.69 in1005.4 mb 0.00 in0.0 mm 0.00 in0.0 mm 0.00 in0.0 mm
12:30 PM 23.5°F-4.7°C -1.3°F-18.5°C 33% 2.0 mph SE3.2 kmh SE 4.7 mph7.6 kmh 29.68 in1005.1 mb 0.00 in0.0 mm 0.00 in0.0 mm 0.00 in0.0 mm
12:45 PM 23.7°F-4.6°C -1.8°F-18.8°C 32% 4.7 mph SE7.6 kmh SE 6.0 mph9.7 kmh 29.69 in1005.4 mb 0.00 in0.0 mm 0.00 in0.0 mm 0.00 in0.0 mm
01:00 PM 26.4°F-3.1°C -3.0°F-19.4°C 27% 2.0 mph SE3.2 kmh SE 6.7 mph10.8 kmh 29.68 in1005.1 mb 0.00 in0.0 mm 0.00 in0.0 mm 0.00 in0.0 mm
01:15 PM 28.2°F-2.1°C -3.0°F-19.4°C 25% 2.0 mph SE3.2 kmh SE 6.7 mph10.8 kmh 29.68 in1005.1 mb 0.00 in0.0 mm 0.00 in0.0 mm 0.00 in0.0 mm
01:30 PM 24.4°F-4.2°C -1.8°F-18.8°C 31% 2.7 mph SSE4.3 kmh SSE 8.7 mph14.0 kmh 29.68 in1005.1 mb 0.00 in0.0 mm 0.00 in0.0 mm 0.00 in0.0 mm
01:45 PM 25.5°F-3.6°C 3.5°F-15.8°C 38% 3.4 mph SE5.5 kmh SE 7.4 mph11.9 kmh 29.68 in1005.1 mb 0.00 in0.0 mm 0.00 in0.0 mm 0.00 in0.0 mm
02:00 PM 25.3°F-3.7°C 2.8°F-16.2°C 37% 2.0 mph SE3.2 kmh SE 7.4 mph11.9 kmh 29.68 in1005.1 mb 0.00 in0.0 mm 0.00 in0.0 mm 0.00 in0.0 mm
02:15 PM 25.9°F-3.4°C 0.1°F-17.7°C 32% 2.7 mph S4.3 kmh S 4.7 mph7.6 kmh 29.68 in1005.1 mb 0.00 in0.0 mm 0.00 in0.0 mm 0.00 in0.0 mm
02:30 PM 28.4°F-2.0°C 1.7°F-16.8°C 31% 3.4 mph SE5.5 kmh SE 10.1 mph16.3 kmh 29.68 in1005.1 mb 0.00 in0.0 mm 0.00 in0.0 mm 0.00 in0.0 mm
02:45 PM 28.2°F-2.1°C -0.6°F-18.1°C 28% 4.0 mph ESE6.4 kmh ESE 6.7 mph10.8 kmh 29.67 in1004.7 mb 0.00 in0.0 mm 0.00 in0.0 mm 0.00 in0.0 mm
03:00 PM 31.8°F-0.1°C 4.7°F-15.2°C 31% 2.7 mph SSE4.3 kmh SSE 4.7 mph7.6 kmh 29.68 in1005.1 mb 0.00 in0.0 mm 0.00 in0.0 mm 0.00 in0.0 mm
03:15 PM 28.2°F-2.1°C 0.1°F-17.7°C 29% 4.7 mph SE7.6 kmh SE 8.1 mph13.0 kmh 29.69 in1005.4 mb 0.00 in0.0 mm 0.00 in0.0 mm 0.00 in0.0 mm
03:30 PM 25.9°F-3.4°C 2.1°F-16.6°C 35% 2.7 mph SE4.3 kmh SE 7.4 mph11.9 kmh 29.69 in1005.4 mb 0.00 in0.0 mm 0.00 in0.0 mm 0.00 in0.0 mm
03:45 PM 27.5°F-2.5°C 5.8°F-14.6°C 39% 6.0 mph SE9.7 kmh SE 8.7 mph14.0 kmh 29.69 in1005.4 mb 0.00 in0.0 mm 0.00 in0.0 mm 0.00 in0.0 mm
04:00 PM 24.6°F-4.1°C 6.4°F-14.2°C 45% 3.4 mph SE5.5 kmh SE 8.1 mph13.0 kmh 29.70 in1005.8 mb 0.00 in0.0 mm 0.00 in0.0 mm 0.00 in0.0 mm
04:15 PM 28.6°F-1.9°C 11.4°F-11.4°C 48% 2.7 mph ESE4.3 kmh ESE 7.4 mph11.9 kmh 29.70 in1005.8 mb 0.00 in0.0 mm 0.00 in0.0 mm 0.00 in0.0 mm
04:30 PM 24.1°F-4.4°C 6.3°F-14.3°C 46% 5.4 mph SE8.7 kmh SE 8.7 mph14.0 kmh 29.71 in1006.1 mb 0.00 in0.0 mm 0.00 in0.0 mm 0.00 in0.0 mm
04:45 PM 25.2°F-3.8°C 4.8°F-15.1°C 41% 3.4 mph ESE5.5 kmh ESE 8.1 mph13.0 kmh 29.71 in1006.1 mb 0.00 in0.0 mm 0.00 in0.0 mm 0.00 in0.0 mm
05:00 PM 25.9°F-3.4°C 7.0°F-13.9°C 44% 4.7 mph SE7.6 kmh SE 8.7 mph14.0 kmh 29.71 in1006.1 mb 0.00 in0.0 mm 0.00 in0.0 mm 0.00 in0.0 mm
05:15 PM 25.7°F-3.5°C 6.9°F-13.9°C 44% 6.0 mph SE9.7 kmh SE 9.4 mph15.1 kmh 29.72 in1006.4 mb 0.00 in0.0 mm 0.00 in0.0 mm 0.00 in0.0 mm
05:30 PM 24.1°F-4.4°C 6.3°F-14.3°C 46% 4.7 mph SE7.6 kmh SE 11.4 mph18.3 kmh 29.72 in1006.4 mb 0.00 in0.0 mm 0.00 in0.0 mm 0.00 in0.0 mm
05:45 PM 22.8°F-5.1°C 6.6°F-14.1°C 49% 5.4 mph SE8.7 kmh SE 9.4 mph15.1 kmh 29.73 in1006.8 mb 0.00 in0.0 mm 0.00 in0.0 mm 0.00 in0.0 mm
06:00 PM 22.5°F-5.3°C 6.7°F-14.1°C 50% 4.0 mph SE6.4 kmh SE 9.4 mph15.1 kmh 29.73 in1006.8 mb 0.00 in0.0 mm 0.00 in0.0 mm 0.00 in0.0 mm
06:15 PM 22.1°F-5.5°C 6.8°F-14.0°C 51% 5.4 mph SE8.7 kmh SE 8.7 mph14.0 kmh 29.74 in1007.1 mb 0.00 in0.0 mm 0.00 in0.0 mm 0.00 in0.0 mm
06:30 PM 21.0°F-6.1°C 6.6°F-14.1°C 53% 4.7 mph SE7.6 kmh SE 8.1 mph13.0 kmh 29.74 in1007.1 mb 0.00 in0.0 mm 0.00 in0.0 mm 0.00 in0.0 mm
06:45 PM 20.7°F-6.3°C 7.1°F-13.8°C 55% 2.7 mph ESE4.3 kmh ESE 6.0 mph9.7 kmh 29.75 in1007.5 mb 0.00 in0.0 mm 0.00 in0.0 mm 0.00 in0.0 mm
07:00 PM 20.1°F-6.6°C 7.0°F-13.9°C 56% 2.7 mph ESE4.3 kmh ESE 6.7 mph10.8 kmh 29.76 in1007.8 mb 0.00 in0.0 mm 0.00 in0.0 mm 0.00 in0.0 mm
07:15 PM 19.8°F-6.8°C 7.1°F-13.8°C 57% 2.0 mph ESE3.2 kmh ESE 5.4 mph8.7 kmh 29.76 in1007.8 mb 0.00 in0.0 mm 0.00 in0.0 mm 0.00 in0.0 mm
07:30 PM 19.2°F-7.1°C 4.5°F-15.3°C 52% 2.7 mph ESE4.3 kmh ESE 5.4 mph8.7 kmh 29.77 in1008.1 mb 0.00 in0.0 mm 0.00 in0.0 mm 0.00 in0.0 mm
07:45 PM 19.0°F-7.2°C 4.8°F-15.1°C 53% 3.4 mph E5.5 kmh E 6.0 mph9.7 kmh 29.78 in1008.5 mb 0.00 in0.0 mm 0.00 in0.0 mm 0.00 in0.0 mm
08:00 PM 18.9°F-7.3°C 5.4°F-14.8°C 55% 2.7 mph SE4.3 kmh SE 6.0 mph9.7 kmh 29.78 in1008.5 mb 0.00 in0.0 mm 0.00 in0.0 mm 0.00 in0.0 mm
08:15 PM 19.0°F-7.2°C 6.4°F-14.2°C 57% 4.0 mph ESE6.4 kmh ESE 6.0 mph9.7 kmh 29.79 in1008.8 mb 0.00 in0.0 mm 0.00 in0.0 mm 0.00 in0.0 mm
08:30 PM 18.9°F-7.3°C 6.2°F-14.3°C 57% 6.0 mph E9.7 kmh E 8.1 mph13.0 kmh 29.79 in1008.8 mb 0.00 in0.0 mm 0.00 in0.0 mm 0.00 in0.0 mm
08:45 PM 18.5°F-7.5°C 6.6°F-14.1°C 59% 6.0 mph ESE9.7 kmh ESE 9.4 mph15.1 kmh 29.79 in1008.8 mb 0.00 in0.0 mm 0.00 in0.0 mm 0.00 in0.0 mm
09:00 PM 18.1°F-7.7°C 7.0°F-13.9°C 61% 4.0 mph ESE6.4 kmh ESE 8.1 mph13.0 kmh 29.79 in1008.8 mb 0.00 in0.0 mm 0.00 in0.0 mm 0.00 in0.0 mm
09:15 PM 17.4°F-8.1°C 7.0°F-13.9°C 63% 2.7 mph E4.3 kmh E 4.0 mph6.4 kmh 29.78 in1008.5 mb 0.00 in0.0 mm 0.00 in0.0 mm 0.00 in0.0 mm
09:30 PM 17.1°F-8.3°C 7.0°F-13.9°C 64% 1.3 mph E2.1 kmh E 4.0 mph6.4 kmh 29.80 in1009.1 mb 0.00 in0.0 mm 0.00 in0.0 mm 0.00 in0.0 mm
09:45 PM 16.5°F-8.6°C 6.9°F-13.9°C 65% 0.7 mph ESE1.1 kmh ESE 2.0 mph3.2 kmh 29.80 in1009.1 mb 0.00 in0.0 mm 0.00 in0.0 mm 0.00 in0.0 mm
10:00 PM 14.4°F-9.8°C 6.1°F-14.4°C 69% Calm Calm 1.3 mph2.1 kmh 29.80 in1009.1 mb 0.00 in0.0 mm 0.00 in0.0 mm 0.00 in0.0 mm
10:15 PM 14.5°F-9.7°C 7.2°F-13.8°C 72% Calm Calm 1.3 mph2.1 kmh 29.80 in1009.1 mb 0.00 in0.0 mm 0.00 in0.0 mm 0.00 in0.0 mm
10:30 PM 13.5°F-10.3°C 6.8°F-14.0°C 74% Calm Calm -- 29.80 in1009.1 mb 0.00 in0.0 mm 0.00 in0.0 mm 0.00 in0.0 mm
10:43 PM 13.1°F-10.5°C 6.7°F-14.1°C 75% Calm Calm -- 29.80 in1009.1 mb 0.00 in0.0 mm 0.00 in0.0 mm 0.00 in0.0 mm
10:45 PM 13.1°F-10.5°C 6.7°F-14.1°C 75% Calm Calm 2.0 mph3.2 kmh 29.81 in1009.5 mb 0.00 in0.0 mm 0.00 in0.0 mm 0.00 in0.0 mm
11:13 PM 10.8°F-11.8°C 3.8°F-15.7°C 73% 0.7 mph W1.1 kmh W 1.3 mph2.1 kmh 29.80 in1009.1 mb 0.00 in0.0 mm 0.00 in0.0 mm 0.00 in0.0 mm
11:43 PM 10.2°F-12.1°C 2.1°F-16.6°C 69% 0.7 mph E1.1 kmh E 1.3 mph2.1 kmh 29.80 in1009.1 mb 0.00 in0.0 mm 0.00 in0.0 mm 0.00 in0.0 mm